sensor_id;sensor_type;location;lat;lon;timestamp;P1;durP1;ratioP1;P2;durP2;ratioP2
56893;SDS011;43392;50.078;13.704;2023-07-31T00:01:15;4.75;;;1.80;;
56893;SDS011;43392;50.078;13.704;2023-07-31T00:03:42;6.78;;;1.83;;
56893;SDS011;43392;50.078;13.704;2023-07-31T00:06:08;4.28;;;1.42;;
56893;SDS011;43392;50.078;13.704;2023-07-31T00:08:35;5.13;;;1.90;;
56893;SDS011;43392;50.078;13.704;2023-07-31T00:11:03;10.13;;;2.40;;
56893;SDS011;43392;50.078;13.704;2023-07-31T00:13:30;4.18;;;1.70;;
56893;SDS011;43392;50.078;13.704;2023-07-31T00:15:56;5.18;;;1.77;;
56893;SDS011;43392;50.078;13.704;2023-07-31T00:18:23;7.78;;;1.73;;
56893;SDS011;43392;50.078;13.704;2023-07-31T00:20:49;5.50;;;1.80;;
56893;SDS011;43392;50.078;13.704;2023-07-31T00:23:16;7.45;;;1.90;;
56893;SDS011;43392;50.078;13.704;2023-07-31T00:25:43;7.38;;;1.75;;
56893;SDS011;43392;50.078;13.704;2023-07-31T00:28:11;6.18;;;1.88;;
56893;SDS011;43392;50.078;13.704;2023-07-31T00:30:37;7.07;;;1.55;;
56893;SDS011;43392;50.078;13.704;2023-07-31T00:33:04;6.22;;;1.77;;
56893;SDS011;43392;50.078;13.704;2023-07-31T00:35:31;4.65;;;1.48;;
56893;SDS011;43392;50.078;13.704;2023-07-31T00:37:57;6.88;;;1.70;;
56893;SDS011;43392;50.078;13.704;2023-07-31T00:40:24;5.10;;;1.52;;
56893;SDS011;43392;50.078;13.704;2023-07-31T00:42:51;5.43;;;1.60;;
56893;SDS011;43392;50.078;13.704;2023-07-31T00:45:19;4.00;;;1.42;;
56893;SDS011;43392;50.078;13.704;2023-07-31T00:47:48;7.93;;;1.80;;
56893;SDS011;43392;50.078;13.704;2023-07-31T00:50:15;4.60;;;1.40;;
56893;SDS011;43392;50.078;13.704;2023-07-31T00:52:42;5.93;;;1.75;;
56893;SDS011;43392;50.078;13.704;2023-07-31T00:55:09;4.35;;;1.70;;
56893;SDS011;43392;50.078;13.704;2023-07-31T00:57:36;4.10;;;1.60;;
56893;SDS011;43392;50.078;13.704;2023-07-31T01:00:04;7.07;;;1.80;;
56893;SDS011;43392;50.078;13.704;2023-07-31T01:02:34;9.63;;;1.83;;
56893;SDS011;43392;50.078;13.704;2023-07-31T01:05:01;4.90;;;1.48;;
56893;SDS011;43392;50.078;13.704;2023-07-31T01:07:31;4.82;;;1.55;;
56893;SDS011;43392;50.078;13.704;2023-07-31T01:10:07;4.80;;;1.60;;
56893;SDS011;43392;50.078;13.704;2023-07-31T01:12:38;4.38;;;1.70;;
56893;SDS011;43392;50.078;13.704;2023-07-31T01:15:05;4.40;;;1.65;;
56893;SDS011;43392;50.078;13.704;2023-07-31T01:17:37;6.82;;;1.73;;
56893;SDS011;43392;50.078;13.704;2023-07-31T01:20:05;5.03;;;1.58;;
56893;SDS011;43392;50.078;13.704;2023-07-31T01:22:46;5.03;;;1.58;;
56893;SDS011;43392;50.078;13.704;2023-07-31T01:25:32;4.68;;;1.63;;
56893;SDS011;43392;50.078;13.704;2023-07-31T01:28:17;5.67;;;1.60;;
56893;SDS011;43392;50.078;13.704;2023-07-31T01:30:48;8.50;;;1.75;;
56893;SDS011;43392;50.078;13.704;2023-07-31T01:33:16;8.20;;;2.00;;
56893;SDS011;43392;50.078;13.704;2023-07-31T01:35:43;4.82;;;1.67;;
56893;SDS011;43392;50.078;13.704;2023-07-31T01:38:11;6.18;;;1.92;;
56893;SDS011;43392;50.078;13.704;2023-07-31T01:40:40;5.28;;;1.90;;
56893;SDS011;43392;50.078;13.704;2023-07-31T01:43:09;5.13;;;1.75;;
56893;SDS011;43392;50.078;13.704;2023-07-31T01:45:36;5.28;;;1.80;;
56893;SDS011;43392;50.078;13.704;2023-07-31T01:48:02;8.93;;;1.80;;
56893;SDS011;43392;50.078;13.704;2023-07-31T01:50:29;6.38;;;1.75;;
56893;SDS011;43392;50.078;13.704;2023-07-31T01:52:55;5.88;;;1.60;;
56893;SDS011;43392;50.078;13.704;2023-07-31T01:55:22;4.68;;;1.48;;
56893;SDS011;43392;50.078;13.704;2023-07-31T01:57:49;5.07;;;1.58;;
56893;SDS011;43392;50.078;13.704;2023-07-31T02:00:17;5.75;;;1.75;;
56893;SDS011;43392;50.078;13.704;2023-07-31T02:02:43;5.38;;;1.77;;
56893;SDS011;43392;50.078;13.704;2023-07-31T02:05:10;5.00;;;1.40;;
56893;SDS011;43392;50.078;13.704;2023-07-31T02:07:37;6.55;;;1.60;;
56893;SDS011;43392;50.078;13.704;2023-07-31T02:10:03;6.75;;;2.38;;
56893;SDS011;43392;50.078;13.704;2023-07-31T02:12:30;7.35;;;1.80;;
56893;SDS011;43392;50.078;13.704;2023-07-31T02:14:58;4.40;;;1.70;;
56893;SDS011;43392;50.078;13.704;2023-07-31T02:17:26;6.55;;;1.90;;
56893;SDS011;43392;50.078;13.704;2023-07-31T02:19:53;6.38;;;1.75;;
56893;SDS011;43392;50.078;13.704;2023-07-31T02:22:20;5.20;;;1.70;;
56893;SDS011;43392;50.078;13.704;2023-07-31T02:24:47;10.25;;;1.73;;
56893;SDS011;43392;50.078;13.704;2023-07-31T02:27:13;8.05;;;2.17;;
56893;SDS011;43392;50.078;13.704;2023-07-31T02:29:40;8.07;;;1.85;;
56893;SDS011;43392;50.078;13.704;2023-07-31T02:32:06;6.18;;;1.88;;
56893;SDS011;43392;50.078;13.704;2023-07-31T02:34:35;6.07;;;1.75;;
56893;SDS011;43392;50.078;13.704;2023-07-31T02:37:01;6.03;;;1.90;;
56893;SDS011;43392;50.078;13.704;2023-07-31T02:39:28;5.45;;;2.00;;
56893;SDS011;43392;50.078;13.704;2023-07-31T02:41:54;5.93;;;2.10;;
56893;SDS011;43392;50.078;13.704;2023-07-31T02:44:21;6.53;;;1.88;;
56893;SDS011;43392;50.078;13.704;2023-07-31T02:46:47;4.85;;;1.77;;
56893;SDS011;43392;50.078;13.704;2023-07-31T02:49:14;7.05;;;2.30;;
56893;SDS011;43392;50.078;13.704;2023-07-31T02:51:42;5.20;;;2.03;;
56893;SDS011;43392;50.078;13.704;2023-07-31T02:54:09;5.90;;;2.10;;
56893;SDS011;43392;50.078;13.704;2023-07-31T02:56:35;4.80;;;1.90;;
56893;SDS011;43392;50.078;13.704;2023-07-31T02:59:02;5.18;;;2.05;;
56893;SDS011;43392;50.078;13.704;2023-07-31T03:01:29;10.68;;;2.35;;
56893;SDS011;43392;50.078;13.704;2023-07-31T03:03:55;8.60;;;2.22;;
56893;SDS011;43392;50.078;13.704;2023-07-31T03:06:22;4.85;;;2.17;;
56893;SDS011;43392;50.078;13.704;2023-07-31T03:08:50;9.02;;;2.45;;
56893;SDS011;43392;50.078;13.704;2023-07-31T03:11:16;5.95;;;2.25;;
56893;SDS011;43392;50.078;13.704;2023-07-31T03:13:43;6.72;;;2.55;;
56893;SDS011;43392;50.078;13.704;2023-07-31T03:16:09;5.47;;;2.30;;
56893;SDS011;43392;50.078;13.704;2023-07-31T03:18:36;8.00;;;2.25;;
56893;SDS011;43392;50.078;13.704;2023-07-31T03:21:03;9.25;;;2.50;;
56893;SDS011;43392;50.078;13.704;2023-07-31T03:23:30;8.18;;;2.10;;
56893;SDS011;43392;50.078;13.704;2023-07-31T03:25:58;9.50;;;2.13;;
56893;SDS011;43392;50.078;13.704;2023-07-31T03:28:26;8.00;;;2.05;;
56893;SDS011;43392;50.078;13.704;2023-07-31T03:30:53;8.18;;;2.50;;
56893;SDS011;43392;50.078;13.704;2023-07-31T03:33:19;8.50;;;2.20;;
56893;SDS011;43392;50.078;13.704;2023-07-31T03:35:46;5.82;;;2.00;;
56893;SDS011;43392;50.078;13.704;2023-07-31T03:38:12;7.95;;;2.42;;
56893;SDS011;43392;50.078;13.704;2023-07-31T03:40:39;5.72;;;2.17;;
56893;SDS011;43392;50.078;13.704;2023-07-31T03:43:06;3.63;;;1.95;;
56893;SDS011;43392;50.078;13.704;2023-07-31T03:45:33;4.80;;;2.05;;
56893;SDS011;43392;50.078;13.704;2023-07-31T03:47:59;6.57;;;2.22;;
56893;SDS011;43392;50.078;13.704;2023-07-31T03:50:26;6.75;;;2.13;;
56893;SDS011;43392;50.078;13.704;2023-07-31T03:52:53;7.47;;;2.22;;
56893;SDS011;43392;50.078;13.704;2023-07-31T03:55:19;6.05;;;2.30;;
56893;SDS011;43392;50.078;13.704;2023-07-31T03:57:46;8.98;;;2.55;;
56893;SDS011;43392;50.078;13.704;2023-07-31T04:00:14;5.70;;;2.05;;
56893;SDS011;43392;50.078;13.704;2023-07-31T04:02:41;5.15;;;2.10;;
56893;SDS011;43392;50.078;13.704;2023-07-31T04:05:08;5.85;;;2.15;;
56893;SDS011;43392;50.078;13.704;2023-07-31T04:07:34;7.82;;;2.53;;
56893;SDS011;43392;50.078;13.704;2023-07-31T04:10:01;9.27;;;2.55;;
56893;SDS011;43392;50.078;13.704;2023-07-31T04:12:28;8.73;;;2.35;;
56893;SDS011;43392;50.078;13.704;2023-07-31T04:14:55;4.43;;;2.30;;
56893;SDS011;43392;50.078;13.704;2023-07-31T04:17:23;8.98;;;2.30;;
56893;SDS011;43392;50.078;13.704;2023-07-31T04:19:49;5.95;;;2.38;;
56893;SDS011;43392;50.078;13.704;2023-07-31T04:22:16;4.78;;;2.20;;
56893;SDS011;43392;50.078;13.704;2023-07-31T04:24:42;7.13;;;2.22;;
56893;SDS011;43392;50.078;13.704;2023-07-31T04:27:09;8.48;;;2.55;;
56893;SDS011;43392;50.078;13.704;2023-07-31T04:29:36;5.50;;;2.47;;
56893;SDS011;43392;50.078;13.704;2023-07-31T04:32:05;7.35;;;2.15;;
56893;SDS011;43392;50.078;13.704;2023-07-31T04:34:33;5.78;;;2.25;;
56893;SDS011;43392;50.078;13.704;2023-07-31T04:36:59;6.70;;;2.30;;
56893;SDS011;43392;50.078;13.704;2023-07-31T04:39:26;5.22;;;2.38;;
56893;SDS011;43392;50.078;13.704;2023-07-31T04:41:53;6.90;;;2.60;;
56893;SDS011;43392;50.078;13.704;2023-07-31T04:44:19;5.75;;;2.22;;
56893;SDS011;43392;50.078;13.704;2023-07-31T04:46:46;8.40;;;2.80;;
56893;SDS011;43392;50.078;13.704;2023-07-31T04:49:12;11.18;;;2.63;;
56893;SDS011;43392;50.078;13.704;2023-07-31T04:51:40;6.82;;;2.60;;
56893;SDS011;43392;50.078;13.704;2023-07-31T04:54:07;8.63;;;2.72;;
56893;SDS011;43392;50.078;13.704;2023-07-31T04:56:34;7.55;;;2.58;;
56893;SDS011;43392;50.078;13.704;2023-07-31T04:59:00;10.27;;;2.90;;
56893;SDS011;43392;50.078;13.704;2023-07-31T05:01:27;5.75;;;2.40;;
56893;SDS011;43392;50.078;13.704;2023-07-31T05:03:53;8.23;;;2.70;;
56893;SDS011;43392;50.078;13.704;2023-07-31T05:06:20;7.50;;;2.50;;
56893;SDS011;43392;50.078;13.704;2023-07-31T05:08:48;9.27;;;2.65;;
56893;SDS011;43392;50.078;13.704;2023-07-31T05:11:15;6.82;;;2.63;;
56893;SDS011;43392;50.078;13.704;2023-07-31T05:13:41;8.73;;;2.47;;
56893;SDS011;43392;50.078;13.704;2023-07-31T05:16:08;6.35;;;2.47;;
56893;SDS011;43392;50.078;13.704;2023-07-31T05:18:34;8.43;;;2.70;;
56893;SDS011;43392;50.078;13.704;2023-07-31T05:21:01;4.90;;;2.35;;
56893;SDS011;43392;50.078;13.704;2023-07-31T05:23:28;7.97;;;2.30;;
56893;SDS011;43392;50.078;13.704;2023-07-31T05:26:03;8.95;;;2.38;;
56893;SDS011;43392;50.078;13.704;2023-07-31T05:28:30;5.35;;;2.28;;
56893;SDS011;43392;50.078;13.704;2023-07-31T05:30:58;9.02;;;2.75;;
56893;SDS011;43392;50.078;13.704;2023-07-31T05:33:25;6.82;;;2.53;;
56893;SDS011;43392;50.078;13.704;2023-07-31T05:35:52;7.88;;;2.40;;
56893;SDS011;43392;50.078;13.704;2023-07-31T05:38:18;8.38;;;2.42;;
56893;SDS011;43392;50.078;13.704;2023-07-31T05:40:45;4.70;;;2.00;;
56893;SDS011;43392;50.078;13.704;2023-07-31T05:43:14;6.95;;;2.60;;
56893;SDS011;43392;50.078;13.704;2023-07-31T05:45:41;6.03;;;2.28;;
56893;SDS011;43392;50.078;13.704;2023-07-31T05:48:08;7.68;;;2.40;;
56893;SDS011;43392;50.078;13.704;2023-07-31T05:50:34;7.82;;;2.70;;
56893;SDS011;43392;50.078;13.704;2023-07-31T05:53:02;4.63;;;2.10;;
56893;SDS011;43392;50.078;13.704;2023-07-31T05:55:28;5.90;;;2.15;;
56893;SDS011;43392;50.078;13.704;2023-07-31T05:57:55;5.90;;;2.55;;
56893;SDS011;43392;50.078;13.704;2023-07-31T06:00:23;7.13;;;2.17;;
56893;SDS011;43392;50.078;13.704;2023-07-31T06:02:50;10.00;;;2.08;;
56893;SDS011;43392;50.078;13.704;2023-07-31T06:05:16;4.97;;;2.22;;
56893;SDS011;43392;50.078;13.704;2023-07-31T06:07:43;7.75;;;2.00;;
56893;SDS011;43392;50.078;13.704;2023-07-31T06:10:09;6.88;;;2.30;;
56893;SDS011;43392;50.078;13.704;2023-07-31T06:12:36;5.93;;;2.00;;
56893;SDS011;43392;50.078;13.704;2023-07-31T06:15:03;9.07;;;2.42;;
56893;SDS011;43392;50.078;13.704;2023-07-31T06:17:32;7.90;;;2.47;;
56893;SDS011;43392;50.078;13.704;2023-07-31T06:19:58;6.38;;;2.40;;
56893;SDS011;43392;50.078;13.704;2023-07-31T06:22:25;7.35;;;2.13;;
56893;SDS011;43392;50.078;13.704;2023-07-31T06:24:52;5.78;;;2.00;;
56893;SDS011;43392;50.078;13.704;2023-07-31T06:27:18;5.72;;;2.25;;
56893;SDS011;43392;50.078;13.704;2023-07-31T06:29:45;7.13;;;2.20;;
56893;SDS011;43392;50.078;13.704;2023-07-31T06:32:11;6.88;;;2.15;;
56893;SDS011;43392;50.078;13.704;2023-07-31T06:34:40;5.70;;;1.98;;
56893;SDS011;43392;50.078;13.704;2023-07-31T06:37:06;6.78;;;2.25;;
56893;SDS011;43392;50.078;13.704;2023-07-31T06:39:33;6.97;;;2.40;;
56893;SDS011;43392;50.078;13.704;2023-07-31T06:41:59;5.35;;;2.45;;
56893;SDS011;43392;50.078;13.704;2023-07-31T06:44:26;11.75;;;2.70;;
56893;SDS011;43392;50.078;13.704;2023-07-31T06:46:53;5.82;;;2.38;;
56893;SDS011;43392;50.078;13.704;2023-07-31T06:49:19;7.55;;;2.33;;
56893;SDS011;43392;50.078;13.704;2023-07-31T06:51:47;6.80;;;2.15;;
56893;SDS011;43392;50.078;13.704;2023-07-31T06:54:14;11.38;;;2.42;;
56893;SDS011;43392;50.078;13.704;2023-07-31T06:56:40;7.38;;;2.22;;
56893;SDS011;43392;50.078;13.704;2023-07-31T06:59:07;7.32;;;2.45;;
56893;SDS011;43392;50.078;13.704;2023-07-31T07:01:34;10.25;;;2.17;;
56893;SDS011;43392;50.078;13.704;2023-07-31T07:04:00;8.48;;;2.38;;
56893;SDS011;43392;50.078;13.704;2023-07-31T07:06:27;5.63;;;1.77;;
56893;SDS011;43392;50.078;13.704;2023-07-31T07:08:55;4.38;;;2.10;;
56893;SDS011;43392;50.078;13.704;2023-07-31T07:11:21;6.70;;;2.30;;
56893;SDS011;43392;50.078;13.704;2023-07-31T07:13:48;5.72;;;2.00;;
56893;SDS011;43392;50.078;13.704;2023-07-31T07:16:15;6.53;;;2.35;;
56893;SDS011;43392;50.078;13.704;2023-07-31T07:18:41;7.38;;;2.55;;
56893;SDS011;43392;50.078;13.704;2023-07-31T07:21:08;7.47;;;2.28;;
56893;SDS011;43392;50.078;13.704;2023-07-31T07:23:34;10.57;;;2.50;;
56893;SDS011;43392;50.078;13.704;2023-07-31T07:26:02;7.75;;;2.50;;
56893;SDS011;43392;50.078;13.704;2023-07-31T07:28:29;9.43;;;2.50;;
56893;SDS011;43392;50.078;13.704;2023-07-31T07:30:55;9.55;;;2.83;;
56893;SDS011;43392;50.078;13.704;2023-07-31T07:33:23;9.32;;;2.20;;
56893;SDS011;43392;50.078;13.704;2023-07-31T07:35:49;9.88;;;2.60;;
56893;SDS011;43392;50.078;13.704;2023-07-31T07:38:16;7.72;;;2.50;;
56893;SDS011;43392;50.078;13.704;2023-07-31T07:40:44;8.25;;;2.40;;
56893;SDS011;43392;50.078;13.704;2023-07-31T07:43:13;7.53;;;2.50;;
56893;SDS011;43392;50.078;13.704;2023-07-31T07:45:39;7.75;;;2.47;;
56893;SDS011;43392;50.078;13.704;2023-07-31T07:48:06;11.10;;;2.55;;
56893;SDS011;43392;50.078;13.704;2023-07-31T07:50:32;6.93;;;2.20;;
56893;SDS011;43392;50.078;13.704;2023-07-31T07:52:59;10.32;;;2.60;;
56893;SDS011;43392;50.078;13.704;2023-07-31T07:55:26;6.97;;;2.30;;
56893;SDS011;43392;50.078;13.704;2023-07-31T07:57:53;8.10;;;2.13;;
56893;SDS011;43392;50.078;13.704;2023-07-31T08:00:21;6.53;;;2.25;;
56893;SDS011;43392;50.078;13.704;2023-07-31T08:02:47;5.32;;;2.10;;
56893;SDS011;43392;50.078;13.704;2023-07-31T08:05:14;8.07;;;2.30;;
56893;SDS011;43392;50.078;13.704;2023-07-31T08:07:42;6.15;;;2.28;;
56893;SDS011;43392;50.078;13.704;2023-07-31T08:10:09;6.05;;;2.45;;
56893;SDS011;43392;50.078;13.704;2023-07-31T08:12:36;6.50;;;2.33;;
56893;SDS011;43392;50.078;13.704;2023-07-31T08:15:02;6.18;;;2.25;;
56893;SDS011;43392;50.078;13.704;2023-07-31T08:17:31;5.40;;;1.95;;
56893;SDS011;43392;50.078;13.704;2023-07-31T08:19:57;7.22;;;2.33;;
56893;SDS011;43392;50.078;13.704;2023-07-31T08:22:24;4.18;;;2.13;;
56893;SDS011;43392;50.078;13.704;2023-07-31T08:24:51;4.72;;;1.98;;
56893;SDS011;43392;50.078;13.704;2023-07-31T08:27:17;4.95;;;2.03;;
56893;SDS011;43392;50.078;13.704;2023-07-31T08:29:44;7.70;;;2.00;;
56893;SDS011;43392;50.078;13.704;2023-07-31T08:32:11;5.68;;;2.28;;
56893;SDS011;43392;50.078;13.704;2023-07-31T08:34:39;6.35;;;2.33;;
56893;SDS011;43392;50.078;13.704;2023-07-31T08:37:06;6.40;;;2.53;;
56893;SDS011;43392;50.078;13.704;2023-07-31T08:39:33;5.20;;;2.15;;
56893;SDS011;43392;50.078;13.704;2023-07-31T08:42:00;7.80;;;2.60;;
56893;SDS011;43392;50.078;13.704;2023-07-31T08:44:26;6.97;;;2.15;;
56893;SDS011;43392;50.078;13.704;2023-07-31T08:46:53;7.05;;;2.42;;
56893;SDS011;43392;50.078;13.704;2023-07-31T08:49:20;8.35;;;2.70;;
56893;SDS011;43392;50.078;13.704;2023-07-31T08:51:50;11.88;;;2.40;;
56893;SDS011;43392;50.078;13.704;2023-07-31T08:54:18;13.57;;;2.30;;
56893;SDS011;43392;50.078;13.704;2023-07-31T08:56:46;11.05;;;2.90;;
56893;SDS011;43392;50.078;13.704;2023-07-31T08:59:13;8.77;;;2.47;;
56893;SDS011;43392;50.078;13.704;2023-07-31T09:01:43;8.50;;;2.10;;
56893;SDS011;43392;50.078;13.704;2023-07-31T09:04:12;9.87;;;2.63;;
56893;SDS011;43392;50.078;13.704;2023-07-31T09:06:40;6.88;;;2.47;;
56893;SDS011;43392;50.078;13.704;2023-07-31T09:09:09;5.75;;;2.20;;
56893;SDS011;43392;50.078;13.704;2023-07-31T09:11:37;8.52;;;2.30;;
56893;SDS011;43392;50.078;13.704;2023-07-31T09:14:03;6.05;;;2.35;;
56893;SDS011;43392;50.078;13.704;2023-07-31T09:16:33;7.88;;;2.15;;
56893;SDS011;43392;50.078;13.704;2023-07-31T09:19:00;6.00;;;2.10;;
56893;SDS011;43392;50.078;13.704;2023-07-31T09:21:29;5.32;;;2.30;;
56893;SDS011;43392;50.078;13.704;2023-07-31T09:23:56;8.20;;;2.20;;
56893;SDS011;43392;50.078;13.704;2023-07-31T09:26:31;6.00;;;2.20;;
56893;SDS011;43392;50.078;13.704;2023-07-31T09:28:59;8.80;;;2.28;;
56893;SDS011;43392;50.078;13.704;2023-07-31T09:31:33;7.90;;;2.30;;
56893;SDS011;43392;50.078;13.704;2023-07-31T09:34:04;6.95;;;2.22;;
56893;SDS011;43392;50.078;13.704;2023-07-31T09:36:31;5.63;;;2.20;;
56893;SDS011;43392;50.078;13.704;2023-07-31T09:39:01;5.57;;;2.10;;
56893;SDS011;43392;50.078;13.704;2023-07-31T09:41:30;6.93;;;2.28;;
56893;SDS011;43392;50.078;13.704;2023-07-31T09:43:57;7.63;;;2.53;;
56893;SDS011;43392;50.078;13.704;2023-07-31T09:46:23;7.00;;;2.40;;
56893;SDS011;43392;50.078;13.704;2023-07-31T09:48:53;6.95;;;2.65;;
56893;SDS011;43392;50.078;13.704;2023-07-31T09:51:31;6.75;;;2.20;;
56893;SDS011;43392;50.078;13.704;2023-07-31T09:54:03;6.50;;;2.20;;
56893;SDS011;43392;50.078;13.704;2023-07-31T09:56:31;10.02;;;2.33;;
56893;SDS011;43392;50.078;13.704;2023-07-31T09:58:59;6.20;;;2.43;;
56893;SDS011;43392;50.078;13.704;2023-07-31T10:01:26;4.00;;;1.90;;
56893;SDS011;43392;50.078;13.704;2023-07-31T10:03:53;5.82;;;2.10;;
56893;SDS011;43392;50.078;13.704;2023-07-31T10:06:20;6.05;;;2.00;;
56893;SDS011;43392;50.078;13.704;2023-07-31T10:08:47;5.22;;;2.10;;
56893;SDS011;43392;50.078;13.704;2023-07-31T10:11:17;4.93;;;2.08;;
56893;SDS011;43392;50.078;13.704;2023-07-31T10:13:46;7.43;;;2.33;;
56893;SDS011;43392;50.078;13.704;2023-07-31T10:16:13;5.75;;;2.17;;
56893;SDS011;43392;50.078;13.704;2023-07-31T10:18:41;7.03;;;2.25;;
56893;SDS011;43392;50.078;13.704;2023-07-31T10:21:08;6.60;;;2.10;;
56893;SDS011;43392;50.078;13.704;2023-07-31T10:23:35;5.80;;;2.25;;
56893;SDS011;43392;50.078;13.704;2023-07-31T10:26:04;5.35;;;2.45;;
56893;SDS011;43392;50.078;13.704;2023-07-31T10:28:33;7.33;;;2.57;;
56893;SDS011;43392;50.078;13.704;2023-07-31T10:31:03;5.95;;;2.35;;
56893;SDS011;43392;50.078;13.704;2023-07-31T10:33:31;12.10;;;4.43;;
56893;SDS011;43392;50.078;13.704;2023-07-31T10:36:14;8.00;;;3.00;;
56893;SDS011;43392;50.078;13.704;2023-07-31T10:38:43;7.13;;;3.03;;
56893;SDS011;43392;50.078;13.704;2023-07-31T10:41:10;10.55;;;2.85;;
56893;SDS011;43392;50.078;13.704;2023-07-31T10:43:37;6.65;;;2.63;;
56893;SDS011;43392;50.078;13.704;2023-07-31T10:46:07;7.65;;;2.10;;
56893;SDS011;43392;50.078;13.704;2023-07-31T10:48:34;5.28;;;2.10;;
56893;SDS011;43392;50.078;13.704;2023-07-31T10:51:06;5.80;;;2.15;;
56893;SDS011;43392;50.078;13.704;2023-07-31T10:53:34;8.23;;;2.20;;
56893;SDS011;43392;50.078;13.704;2023-07-31T10:56:02;5.78;;;2.22;;
56893;SDS011;43392;50.078;13.704;2023-07-31T10:58:29;7.03;;;2.00;;
56893;SDS011;43392;50.078;13.704;2023-07-31T11:00:57;6.53;;;1.98;;
56893;SDS011;43392;50.078;13.704;2023-07-31T11:03:27;5.15;;;2.08;;
56893;SDS011;43392;50.078;13.704;2023-07-31T11:06:07;5.40;;;2.20;;
56893;SDS011;43392;50.078;13.704;2023-07-31T11:08:35;6.28;;;2.17;;
56893;SDS011;43392;50.078;13.704;2023-07-31T11:11:07;6.68;;;1.92;;
56893;SDS011;43392;50.078;13.704;2023-07-31T11:13:39;5.47;;;1.70;;
56893;SDS011;43392;50.078;13.704;2023-07-31T11:16:07;6.32;;;1.83;;
56893;SDS011;43392;50.078;13.704;2023-07-31T11:18:37;5.03;;;2.00;;
56893;SDS011;43392;50.078;13.704;2023-07-31T11:23:31;4.20;;;1.60;;
56893;SDS011;43392;50.078;13.704;2023-07-31T11:25:59;5.40;;;2.05;;
56893;SDS011;43392;50.078;13.704;2023-07-31T11:28:30;7.03;;;2.10;;
56893;SDS011;43392;50.078;13.704;2023-07-31T11:30:58;6.38;;;1.98;;
56893;SDS011;43392;50.078;13.704;2023-07-31T11:33:25;5.90;;;2.00;;
56893;SDS011;43392;50.078;13.704;2023-07-31T11:35:53;6.70;;;1.70;;
56893;SDS011;43392;50.078;13.704;2023-07-31T11:38:22;5.07;;;1.90;;
56893;SDS011;43392;50.078;13.704;2023-07-31T11:40:50;7.32;;;2.10;;
56893;SDS011;43392;50.078;13.704;2023-07-31T11:43:17;6.40;;;1.90;;
56893;SDS011;43392;50.078;13.704;2023-07-31T11:45:45;9.45;;;2.72;;
56893;SDS011;43392;50.078;13.704;2023-07-31T11:48:18;6.95;;;2.35;;
56893;SDS011;43392;50.078;13.704;2023-07-31T11:50:45;6.32;;;1.98;;
56893;SDS011;43392;50.078;13.704;2023-07-31T11:53:15;6.03;;;1.98;;
56893;SDS011;43392;50.078;13.704;2023-07-31T11:55:45;4.55;;;1.75;;
56893;SDS011;43392;50.078;13.704;2023-07-31T11:58:12;5.32;;;2.17;;
56893;SDS011;43392;50.078;13.704;2023-07-31T12:00:41;5.65;;;1.98;;
56893;SDS011;43392;50.078;13.704;2023-07-31T12:03:08;5.53;;;1.90;;
56893;SDS011;43392;50.078;13.704;2023-07-31T12:05:36;5.63;;;1.80;;
56893;SDS011;43392;50.078;13.704;2023-07-31T12:08:05;5.65;;;1.95;;
56893;SDS011;43392;50.078;13.704;2023-07-31T12:10:37;5.88;;;1.90;;
56893;SDS011;43392;50.078;13.704;2023-07-31T12:13:06;4.13;;;1.80;;
56893;SDS011;43392;50.078;13.704;2023-07-31T12:15:36;6.32;;;1.90;;
56893;SDS011;43392;50.078;13.704;2023-07-31T12:18:05;5.47;;;1.95;;
56893;SDS011;43392;50.078;13.704;2023-07-31T12:20:33;6.43;;;1.70;;
56893;SDS011;43392;50.078;13.704;2023-07-31T12:23:00;5.78;;;2.05;;
56893;SDS011;43392;50.078;13.704;2023-07-31T12:25:28;6.45;;;1.70;;
56893;SDS011;43392;50.078;13.704;2023-07-31T12:27:57;4.85;;;1.77;;
56893;SDS011;43392;50.078;13.704;2023-07-31T12:30:27;8.48;;;2.08;;
56893;SDS011;43392;50.078;13.704;2023-07-31T12:35:21;5.43;;;1.63;;
56893;SDS011;43392;50.078;13.704;2023-07-31T12:37:47;6.05;;;1.70;;
56893;SDS011;43392;50.078;13.704;2023-07-31T12:40:14;6.07;;;1.98;;
56893;SDS011;43392;50.078;13.704;2023-07-31T12:42:41;4.75;;;1.77;;
56893;SDS011;43392;50.078;13.704;2023-07-31T12:45:09;4.40;;;1.80;;
56893;SDS011;43392;50.078;13.704;2023-07-31T12:47:36;4.28;;;1.58;;
56893;SDS011;43392;50.078;13.704;2023-07-31T12:50:02;7.05;;;1.50;;
56893;SDS011;43392;50.078;13.704;2023-07-31T12:52:29;3.80;;;1.52;;
56893;SDS011;43392;50.078;13.704;2023-07-31T12:54:56;7.28;;;2.25;;
56893;SDS011;43392;50.078;13.704;2023-07-31T12:57:22;4.32;;;1.60;;
56893;SDS011;43392;50.078;13.704;2023-07-31T12:59:49;5.32;;;2.00;;
56893;SDS011;43392;50.078;13.704;2023-07-31T13:02:17;4.88;;;1.63;;
56893;SDS011;43392;50.078;13.704;2023-07-31T13:04:43;3.58;;;1.52;;
56893;SDS011;43392;50.078;13.704;2023-07-31T13:07:10;4.63;;;2.00;;
56893;SDS011;43392;50.078;13.704;2023-07-31T13:09:39;5.25;;;2.05;;
56893;SDS011;43392;50.078;13.704;2023-07-31T13:12:06;4.38;;;1.90;;
56893;SDS011;43392;50.078;13.704;2023-07-31T13:14:33;4.85;;;1.90;;
56893;SDS011;43392;50.078;13.704;2023-07-31T13:17:00;5.90;;;1.90;;
56893;SDS011;43392;50.078;13.704;2023-07-31T13:19:28;6.55;;;1.80;;
56893;SDS011;43392;50.078;13.704;2023-07-31T13:21:55;6.35;;;1.85;;
56893;SDS011;43392;50.078;13.704;2023-07-31T13:24:21;4.95;;;1.67;;
56893;SDS011;43392;50.078;13.704;2023-07-31T13:26:48;5.95;;;2.13;;
56893;SDS011;43392;50.078;13.704;2023-07-31T13:29:14;24.52;;;14.55;;
56893;SDS011;43392;50.078;13.704;2023-07-31T13:31:41;19.85;;;10.07;;
56893;SDS011;43392;50.078;13.704;2023-07-31T13:34:08;18.00;;;9.73;;
56893;SDS011;43392;50.078;13.704;2023-07-31T13:36:36;13.23;;;6.78;;
56893;SDS011;43392;50.078;13.704;2023-07-31T13:39:02;9.93;;;4.20;;
56893;SDS011;43392;50.078;13.704;2023-07-31T13:41:29;8.30;;;3.70;;
56893;SDS011;43392;50.078;13.704;2023-07-31T13:43:55;7.07;;;3.22;;
56893;SDS011;43392;50.078;13.704;2023-07-31T13:46:22;7.00;;;3.13;;
56893;SDS011;43392;50.078;13.704;2023-07-31T13:48:50;6.90;;;2.58;;
56893;SDS011;43392;50.078;13.704;2023-07-31T13:51:19;6.38;;;2.47;;
56893;SDS011;43392;50.078;13.704;2023-07-31T13:53:47;7.78;;;3.00;;
56893;SDS011;43392;50.078;13.704;2023-07-31T13:56:14;10.00;;;4.38;;
56893;SDS011;43392;50.078;13.704;2023-07-31T13:58:41;8.13;;;3.20;;
56893;SDS011;43392;50.078;13.704;2023-07-31T14:01:07;7.57;;;3.10;;
56893;SDS011;43392;50.078;13.704;2023-07-31T14:03:34;7.03;;;2.60;;
56893;SDS011;43392;50.078;13.704;2023-07-31T14:06:00;7.55;;;3.03;;
56893;SDS011;43392;50.078;13.704;2023-07-31T14:08:27;6.85;;;2.50;;
56893;SDS011;43392;50.078;13.704;2023-07-31T14:10:55;6.68;;;2.60;;
56893;SDS011;43392;50.078;13.704;2023-07-31T14:13:22;7.60;;;2.50;;
56893;SDS011;43392;50.078;13.704;2023-07-31T14:15:49;6.60;;;2.33;;
56893;SDS011;43392;50.078;13.704;2023-07-31T14:18:15;6.72;;;2.40;;
56893;SDS011;43392;50.078;13.704;2023-07-31T14:20:42;6.85;;;2.45;;
56893;SDS011;43392;50.078;13.704;2023-07-31T14:23:08;7.82;;;2.50;;
56893;SDS011;43392;50.078;13.704;2023-07-31T14:25:35;6.13;;;2.55;;
56893;SDS011;43392;50.078;13.704;2023-07-31T14:28:03;5.63;;;1.88;;
56893;SDS011;43392;50.078;13.704;2023-07-31T14:30:30;14.23;;;3.47;;
56893;SDS011;43392;50.078;13.704;2023-07-31T14:32:56;7.00;;;2.50;;
56893;SDS011;43392;50.078;13.704;2023-07-31T14:35:23;9.23;;;3.35;;
56893;SDS011;43392;50.078;13.704;2023-07-31T14:37:50;6.35;;;2.40;;
56893;SDS011;43392;50.078;13.704;2023-07-31T14:40:16;9.20;;;2.33;;